createdAt,value
2023-04-05T00:00:42.679Z,49.37
2023-04-05T00:01:42.528Z,43.66
2023-04-05T00:02:43.148Z,52.53
2023-04-05T00:03:42.606Z,54.01
2023-04-05T00:04:42.525Z,46.13
2023-04-05T00:05:42.432Z,48.11
2023-04-05T00:06:42.458Z,44.20
2023-04-05T00:07:43.021Z,49.13
2023-04-05T00:08:42.458Z,43.98
2023-04-05T00:09:42.396Z,43.70
2023-04-05T00:10:43.275Z,44.38
2023-04-05T00:11:42.452Z,60.33
2023-04-05T00:12:42.489Z,54.93
2023-04-05T00:13:42.397Z,57.46
2023-04-05T00:14:42.423Z,53.94
2023-04-05T00:15:42.393Z,51.36
2023-04-05T00:16:42.518Z,52.36
2023-04-05T00:17:42.375Z,52.32
2023-04-05T00:18:42.345Z,44.27
2023-04-05T00:19:42.364Z,49.49
2023-04-05T00:20:42.838Z,51.54
2023-04-05T00:21:43.137Z,51.86
2023-04-05T00:22:42.338Z,51.18
2023-04-05T00:23:42.315Z,43.78
2023-04-05T00:24:42.296Z,49.92
2023-04-05T00:25:42.339Z,45.32
2023-04-05T00:26:42.992Z,59.24
2023-04-05T00:27:42.318Z,55.82
2023-04-05T00:28:42.270Z,57.22
2023-04-05T00:29:42.258Z,56.20
2023-04-05T00:30:43.381Z,46.18
2023-04-05T00:31:42.306Z,58.90
2023-04-05T00:32:42.277Z,55.44
2023-04-05T00:33:42.226Z,50.47
2023-04-05T00:34:42.200Z,49.90
2023-04-05T00:35:43.088Z,43.39
2023-04-05T00:36:42.222Z,46.74
2023-04-05T00:37:42.220Z,46.14
2023-04-05T00:38:43.160Z,44.61
2023-04-05T00:39:42.195Z,44.06
2023-04-05T00:40:42.398Z,43.22
2023-04-05T00:41:42.174Z,43.23
2023-04-05T00:42:42.191Z,45.01
2023-04-05T00:43:42.230Z,48.17
2023-04-05T00:44:42.184Z,43.52
2023-04-05T00:45:42.188Z,50.88
2023-04-05T00:46:42.245Z,50.28
2023-04-05T00:47:42.699Z,43.39
2023-04-05T00:48:42.122Z,49.60
2023-04-05T00:49:43.124Z,59.40
2023-04-05T00:50:42.315Z,43.65
2023-04-05T00:51:42.157Z,44.06
2023-04-05T00:52:43.669Z,49.90
2023-04-05T00:53:42.084Z,43.56
2023-04-05T00:54:42.170Z,44.16
2023-04-05T00:55:42.208Z,43.45
2023-04-05T00:56:42.129Z,46.31
2023-04-05T00:57:42.063Z,48.97
2023-04-05T00:58:42.327Z,43.86
2023-04-05T00:59:42.077Z,45.58
2023-04-05T01:00:42.830Z,48.69
2023-04-05T01:01:42.126Z,49.90
2023-04-05T01:02:42.024Z,43.90
2023-04-05T01:03:42.561Z,50.29
2023-04-05T01:04:49.398Z,44.90
2023-04-05T01:05:42.118Z,45.48
2023-04-05T01:06:41.983Z,49.74
2023-04-05T01:07:42.066Z,55.40
2023-04-05T01:08:42.004Z,46.57
2023-04-05T01:09:43.231Z,50.63
2023-04-05T01:10:43.197Z,44.35
2023-04-05T01:11:41.971Z,54.52
2023-04-05T01:12:41.966Z,51.74
2023-04-05T01:13:41.978Z,45.21
2023-04-05T01:14:42.289Z,45.16
2023-04-05T01:15:41.996Z,57.79
2023-04-05T01:16:41.923Z,50.99
2023-04-05T01:17:41.943Z,44.12
2023-04-05T01:18:41.948Z,44.49
2023-04-05T01:19:41.924Z,44.59
2023-04-05T01:20:42.920Z,46.08
2023-04-05T01:21:41.901Z,52.06
2023-04-05T01:22:41.888Z,44.57
2023-04-05T01:23:41.894Z,44.37
2023-04-05T01:24:41.887Z,43.67
2023-04-05T01:25:41.965Z,46.76
2023-04-05T01:26:41.890Z,44.00
2023-04-05T01:27:41.911Z,49.35
2023-04-05T01:28:41.934Z,44.15
2023-04-05T01:29:41.828Z,51.31
2023-04-05T01:30:43.025Z,51.10
2023-04-05T01:31:41.935Z,51.77
2023-04-05T01:32:42.004Z,45.13
2023-04-05T01:33:42.672Z,53.19
2023-04-05T01:34:41.843Z,44.09
2023-04-05T01:35:41.900Z,51.14
2023-04-05T01:36:41.786Z,50.42
2023-04-05T01:37:42.017Z,49.86
2023-04-05T01:38:41.906Z,49.15
2023-04-05T01:39:41.796Z,50.10
2023-04-05T01:40:42.013Z,45.47
2023-04-05T01:41:41.743Z,44.61
2023-04-05T01:42:43.241Z,45.47
2023-04-05T01:43:41.729Z,44.39
2023-04-05T01:44:41.835Z,50.47
2023-04-05T01:45:41.727Z,53.83
2023-04-05T01:46:41.792Z,47.72
2023-04-05T01:47:41.741Z,52.65
2023-04-05T01:48:41.701Z,44.23
2023-04-05T01:49:41.709Z,50.59
2023-04-05T01:50:42.123Z,44.85
2023-04-05T01:51:41.718Z,44.71
2023-04-05T01:52:41.720Z,44.91
2023-04-05T01:53:41.721Z,49.34
2023-04-05T01:54:41.626Z,45.86
2023-04-05T01:55:41.639Z,49.97
2023-04-05T01:56:41.648Z,45.47
2023-04-05T01:57:41.632Z,45.38
2023-04-05T01:58:41.633Z,50.90
2023-04-05T01:59:41.664Z,44.72
2023-04-05T02:00:41.772Z,46.01
2023-04-05T02:01:41.635Z,55.85
2023-04-05T02:02:41.712Z,46.27
2023-04-05T02:03:42.584Z,46.21
2023-04-05T02:04:41.683Z,45.47
2023-04-05T02:05:41.871Z,44.47
2023-04-05T02:06:42.439Z,47.19
2023-04-05T02:07:41.595Z,50.91
2023-04-05T02:08:41.545Z,46.38
2023-04-05T02:09:41.599Z,45.18
2023-04-05T02:10:42.054Z,44.68
2023-04-05T02:11:41.552Z,45.10
2023-04-05T02:12:41.557Z,45.09
2023-04-05T02:13:41.562Z,46.12
2023-04-05T02:14:41.563Z,47.76
2023-04-05T02:15:41.512Z,51.63
2023-04-05T02:16:41.676Z,55.64
2023-04-05T02:17:41.537Z,54.39
2023-04-05T02:18:41.570Z,45.49
2023-04-05T02:19:41.580Z,45.09
2023-04-05T02:20:41.709Z,50.91
2023-04-05T02:21:41.452Z,50.42
2023-04-05T02:22:41.524Z,44.86
2023-04-05T02:23:41.554Z,46.17
2023-04-05T02:24:41.438Z,49.47
2023-04-05T02:25:41.486Z,50.63
2023-04-05T02:26:41.463Z,50.71
2023-04-05T02:27:41.473Z,51.54
2023-04-05T02:28:41.565Z,46.33
2023-04-05T02:29:41.502Z,55.21
2023-04-05T02:30:42.752Z,49.71
2023-04-05T02:31:41.638Z,50.38
2023-04-05T02:32:41.399Z,53.05
2023-04-05T02:33:42.920Z,52.06
2023-04-05T02:34:41.470Z,53.68
2023-04-05T02:35:41.402Z,54.42
2023-04-05T02:36:41.365Z,46.26
2023-04-05T02:37:41.369Z,48.53
2023-04-05T02:38:41.496Z,45.90
2023-04-05T02:39:41.380Z,51.61
2023-04-05T02:40:41.504Z,56.22
2023-04-05T02:41:41.344Z,58.61
2023-04-05T02:42:41.317Z,46.16
2023-04-05T02:43:41.299Z,49.77
2023-04-05T02:44:41.363Z,50.04
2023-04-05T02:45:41.378Z,46.99
2023-04-05T02:46:41.479Z,45.55
2023-04-05T02:47:41.319Z,55.33
2023-04-05T02:48:41.355Z,53.61
2023-04-05T02:49:41.285Z,59.79
2023-04-05T02:50:41.647Z,48.56
2023-04-05T02:51:41.306Z,57.10
2023-04-05T02:52:41.290Z,49.94
2023-04-05T02:53:41.215Z,53.27
2023-04-05T02:54:41.252Z,52.22
2023-04-05T02:55:42.104Z,55.32
2023-04-05T02:56:41.264Z,49.33
2023-04-05T02:57:41.302Z,55.96
2023-04-05T02:58:41.199Z,51.93
2023-04-05T02:59:41.193Z,56.69
2023-04-05T03:00:41.433Z,51.19
2023-04-05T03:01:41.488Z,49.73
2023-04-05T03:02:41.249Z,59.30
2023-04-05T03:03:41.213Z,56.70
2023-04-05T03:04:41.161Z,61.80
2023-04-05T03:05:41.397Z,55.00
2023-04-05T03:06:41.982Z,58.88
2023-04-05T03:07:42.195Z,54.54
2023-04-05T03:08:41.181Z,67.83
2023-04-05T03:09:41.335Z,60.85
2023-04-05T03:10:41.127Z,52.29
2023-04-05T03:11:41.112Z,53.61
2023-04-05T03:12:41.099Z,52.54
2023-04-05T03:13:41.184Z,60.67
2023-04-05T03:14:41.157Z,59.73
2023-04-05T03:15:41.619Z,54.97
2023-04-05T03:16:41.093Z,63.97
2023-04-05T03:17:41.244Z,53.76
2023-04-05T03:18:41.156Z,61.45
2023-04-05T03:19:41.990Z,52.30
2023-04-05T03:20:41.078Z,62.14
2023-04-05T03:21:41.064Z,55.09
2023-04-05T03:22:41.025Z,63.30
2023-04-05T03:23:41.054Z,55.39
2023-04-05T03:24:41.441Z,55.40
2023-04-05T03:25:41.342Z,56.57
2023-04-05T03:26:41.013Z,54.22
2023-04-05T03:27:41.038Z,65.13
2023-04-05T03:28:40.992Z,67.36
2023-04-05T03:29:41.182Z,61.63
2023-04-05T03:30:40.977Z,58.69
2023-04-05T03:31:41.128Z,58.10
2023-04-05T03:32:40.991Z,61.29
2023-04-05T03:33:40.977Z,64.28
2023-04-05T03:34:40.973Z,59.47
2023-04-05T03:35:41.132Z,50.89
2023-04-05T03:36:40.937Z,52.82
2023-04-05T03:37:40.930Z,64.53
2023-04-05T03:38:42.546Z,57.48
2023-04-05T03:39:41.912Z,65.02
2023-04-05T03:40:40.934Z,68.03
2023-04-05T03:41:40.876Z,58.92
2023-04-05T03:42:41.133Z,61.02
2023-04-05T03:43:40.858Z,62.34
2023-04-05T03:44:40.871Z,61.32
2023-04-05T03:45:41.116Z,66.36
2023-04-05T03:46:41.771Z,66.82
2023-04-05T04:03:51.210Z,67.78
2023-04-05T04:04:51.261Z,61.67
2023-04-05T04:05:51.218Z,65.21
2023-04-05T04:06:52.446Z,59.73
2023-04-05T04:07:52.315Z,67.57
2023-04-05T04:08:52.301Z,58.08
2023-04-05T04:09:52.291Z,62.79
2023-04-05T04:10:52.327Z,59.58
2023-04-05T04:11:52.342Z,60.34
2023-04-05T04:12:52.301Z,62.43
2023-04-05T04:13:52.330Z,63.06
2023-04-05T04:14:52.252Z,62.62
2023-04-05T04:15:52.367Z,58.91
2023-04-05T04:16:53.074Z,68.92
2023-04-05T04:17:52.318Z,62.49
2023-04-05T04:18:52.258Z,59.34
2023-04-05T04:19:52.351Z,62.42
2023-04-05T04:20:52.425Z,71.00
2023-04-05T04:21:52.274Z,67.06
2023-04-05T04:22:52.278Z,65.42
2023-04-05T04:23:52.259Z,66.00
2023-04-05T04:24:52.234Z,64.40
2023-04-05T04:25:52.237Z,65.74
2023-04-05T04:26:52.312Z,72.67
2023-04-05T04:27:52.217Z,68.23
2023-04-05T04:28:52.177Z,68.73
2023-04-05T04:29:52.187Z,64.15
2023-04-05T04:30:52.236Z,66.51
2023-04-05T04:31:52.171Z,70.22
2023-04-05T04:32:52.439Z,63.83
2023-04-05T04:33:52.155Z,61.55
2023-04-05T04:34:52.144Z,67.50
2023-04-05T04:35:52.158Z,72.89
2023-04-05T04:36:52.100Z,61.59
2023-04-05T04:37:52.168Z,68.77
2023-04-05T04:38:52.799Z,71.61
2023-04-05T04:39:52.171Z,67.81
2023-04-05T04:40:52.133Z,64.21
2023-04-05T04:41:52.096Z,66.99
2023-04-05T04:42:52.078Z,67.12
2023-04-05T04:43:52.127Z,68.71
2023-04-05T04:44:52.096Z,61.38
2023-04-05T04:45:52.121Z,64.45
2023-04-05T04:46:52.058Z,71.59
2023-04-05T04:47:52.211Z,66.86
2023-04-05T04:48:52.048Z,72.49
2023-04-05T04:49:52.017Z,65.47
2023-04-05T04:50:52.053Z,68.83
2023-04-05T04:51:52.044Z,69.85
2023-04-05T04:52:52.039Z,66.60
2023-04-05T04:53:52.808Z,63.22
2023-04-05T04:54:51.991Z,69.19
2023-04-05T04:55:51.991Z,67.38
2023-04-05T04:56:51.966Z,71.79
2023-04-05T04:57:51.986Z,67.42
2023-04-05T04:58:52.011Z,68.21
2023-04-05T04:59:51.994Z,71.95
2023-04-05T05:00:51.995Z,63.15
2023-04-05T05:01:52.057Z,70.64
2023-04-05T05:02:51.969Z,68.70
2023-04-05T05:03:52.015Z,67.68
2023-04-05T05:04:51.927Z,66.88
2023-04-05T05:05:51.889Z,65.41
2023-04-05T05:06:51.895Z,70.25
2023-04-05T05:07:51.878Z,70.27
2023-04-05T05:08:51.885Z,68.48
2023-04-05T05:09:52.844Z,67.64
2023-04-05T05:10:51.909Z,65.91
2023-04-05T05:11:51.860Z,71.42
2023-04-05T05:12:51.877Z,70.06
2023-04-05T05:13:53.470Z,70.40
2023-04-05T05:14:52.834Z,73.04
2023-04-05T05:15:51.985Z,67.33
2023-04-05T05:16:52.817Z,71.30
2023-04-05T05:17:52.048Z,71.35
2023-04-05T05:18:51.809Z,69.63
2023-04-05T05:19:54.653Z,71.26
2023-04-05T05:20:51.831Z,72.46
2023-04-05T05:21:54.527Z,64.53
2023-04-05T05:22:51.849Z,72.61
2023-04-05T05:23:51.747Z,68.03
2023-04-05T05:24:51.816Z,71.18
2023-04-05T05:25:51.809Z,68.78
2023-04-05T05:26:51.931Z,59.89
2023-04-05T05:27:51.764Z,66.41
2023-04-05T05:28:53.210Z,69.81
2023-04-05T05:29:51.735Z,71.38
2023-04-05T05:30:51.791Z,72.03
2023-04-05T05:31:51.728Z,64.67
2023-04-05T05:32:51.742Z,72.79
2023-04-05T05:33:51.699Z,71.06
2023-04-05T05:34:51.778Z,71.74
2023-04-05T05:35:51.773Z,72.63
2023-04-05T05:36:51.762Z,65.07
2023-04-05T05:37:51.668Z,69.41
2023-04-05T05:38:51.926Z,69.57
2023-04-05T05:39:51.731Z,72.52
2023-04-05T05:40:51.629Z,71.69
2023-04-05T05:41:51.616Z,72.25
2023-04-05T05:42:51.653Z,64.53
2023-04-05T05:43:51.851Z,72.96
2023-04-05T05:44:51.812Z,70.11
2023-04-05T05:45:51.707Z,68.56
2023-04-05T05:46:51.608Z,71.94
2023-04-05T05:47:51.632Z,70.01
2023-04-05T05:48:51.582Z,70.38
2023-04-05T05:49:52.281Z,67.21
2023-04-05T05:50:51.627Z,71.15
2023-04-05T05:51:51.584Z,68.97
2023-04-05T05:52:51.539Z,70.13
2023-04-05T05:53:51.565Z,64.75
2023-04-05T05:54:51.562Z,67.43
2023-04-05T05:55:51.515Z,68.30
2023-04-05T05:56:51.670Z,66.56
2023-04-05T05:57:51.526Z,70.62
2023-04-05T05:58:51.806Z,69.95
2023-04-05T05:59:51.498Z,67.95
2023-04-05T06:00:51.516Z,64.61
2023-04-05T06:01:51.464Z,66.15
2023-04-05T06:02:51.600Z,67.02
2023-04-05T06:03:52.513Z,71.10
2023-04-05T06:04:51.483Z,63.41
2023-04-05T06:05:51.454Z,70.39
2023-04-05T06:06:51.949Z,66.41
2023-04-05T06:07:51.653Z,68.82
2023-04-05T06:08:51.531Z,67.29
2023-04-05T06:09:51.421Z,64.71
2023-04-05T06:10:51.400Z,66.35
2023-04-05T06:11:56.270Z,62.64
2023-04-05T06:12:52.429Z,70.16
2023-04-05T06:13:51.405Z,69.52
2023-04-05T06:14:52.363Z,65.06
2023-04-05T06:15:51.414Z,71.00
2023-04-05T06:16:51.361Z,68.55
2023-04-05T06:17:51.596Z,67.38
2023-04-05T06:18:51.326Z,66.75
2023-04-05T06:19:51.853Z,63.63
2023-04-05T06:20:51.327Z,63.71
2023-04-05T06:21:51.330Z,62.81
2023-04-05T06:22:51.292Z,65.97
2023-04-05T06:23:51.288Z,67.32
2023-04-05T06:24:52.410Z,68.26
2023-04-05T06:25:51.332Z,67.35
2023-04-05T06:26:51.271Z,64.00
2023-04-05T06:27:51.281Z,67.47
2023-04-05T06:28:51.248Z,67.80
2023-04-05T06:29:51.312Z,70.63
2023-04-05T06:30:51.242Z,62.35
2023-04-05T06:31:51.308Z,69.55
2023-04-05T06:32:51.270Z,64.33
2023-04-05T06:33:51.211Z,69.47
2023-04-05T06:34:51.478Z,64.82
2023-04-05T06:35:51.416Z,70.99
2023-04-05T06:36:51.511Z,67.69
2023-04-05T06:37:51.289Z,66.35
2023-04-05T06:38:51.201Z,67.74
2023-04-05T06:39:51.694Z,66.00
2023-04-05T06:40:51.160Z,69.02
2023-04-05T06:41:51.136Z,69.55
2023-04-05T06:42:51.241Z,61.11
2023-04-05T06:43:51.115Z,71.10
2023-04-05T06:44:51.209Z,63.03
2023-04-05T06:45:51.287Z,63.77
2023-04-05T06:46:51.178Z,67.11
2023-04-05T06:47:51.188Z,68.64
2023-04-05T06:48:51.081Z,69.48
2023-04-05T06:49:51.203Z,67.43
2023-04-05T06:50:51.068Z,70.79
2023-04-05T06:51:51.116Z,67.95
2023-04-05T06:52:51.216Z,69.81
2023-04-05T06:53:51.043Z,62.03
2023-04-05T06:54:51.074Z,63.70
2023-04-05T06:55:51.057Z,64.75
2023-04-05T06:56:51.038Z,69.02
2023-04-05T06:57:51.140Z,60.87
2023-04-05T06:58:51.251Z,68.70
2023-04-05T06:59:51.041Z,67.44
2023-04-05T07:00:51.062Z,64.68
2023-04-05T07:01:51.114Z,67.99
2023-04-05T07:02:51.353Z,62.50
2023-04-05T07:03:51.599Z,59.14
2023-04-05T07:04:51.101Z,68.23
2023-04-05T07:06:22.917Z,69.28
2023-04-05T07:06:50.976Z,68.20
2023-04-05T07:07:50.938Z,60.53
2023-04-05T07:08:51.340Z,71.00
2023-04-05T07:09:50.915Z,61.81
2023-04-05T07:10:51.018Z,69.47
2023-04-05T07:11:50.910Z,66.72
2023-04-05T07:12:50.913Z,70.13
2023-04-05T07:13:50.933Z,67.57
2023-04-05T07:14:50.895Z,67.70
2023-04-05T07:15:50.925Z,69.10
2023-04-05T07:16:51.879Z,69.87
2023-04-05T07:17:50.952Z,64.81
2023-04-05T07:18:50.851Z,68.50
2023-04-05T07:19:51.795Z,63.98
2023-04-05T07:20:50.886Z,69.97
2023-04-05T07:21:51.724Z,64.32
2023-04-05T07:22:50.808Z,67.38
2023-04-05T07:23:50.817Z,61.20
2023-04-05T07:24:50.886Z,63.64
2023-04-05T07:25:50.802Z,60.57
2023-04-05T07:26:50.936Z,71.58
2023-04-05T07:27:50.839Z,65.57
2023-04-05T07:28:50.770Z,54.34
2023-04-05T07:29:50.792Z,68.62
2023-04-05T07:30:50.777Z,68.46
2023-04-05T07:31:50.805Z,58.89
2023-04-05T07:32:51.005Z,71.70
2023-04-05T07:33:50.730Z,66.96
2023-04-05T07:34:50.756Z,66.46
2023-04-05T07:35:50.764Z,63.36
2023-04-05T07:36:50.767Z,67.92
2023-04-05T07:37:50.707Z,66.08
2023-04-05T07:38:50.733Z,67.45
2023-04-05T07:39:50.695Z,61.59
2023-04-05T07:40:50.871Z,64.97
2023-04-05T07:41:51.535Z,67.93
2023-04-05T07:42:50.680Z,67.92
2023-04-05T07:43:50.689Z,65.49
2023-04-05T07:44:50.692Z,72.20
2023-04-05T07:45:50.667Z,64.63
2023-04-05T07:46:50.800Z,70.02
2023-04-05T07:47:51.315Z,69.53
2023-04-05T07:48:50.771Z,67.42
2023-04-05T07:49:50.688Z,59.27
2023-04-05T07:50:50.625Z,64.93
2023-04-05T07:51:50.600Z,62.54
2023-04-05T07:52:51.635Z,68.45
2023-04-05T07:53:50.577Z,68.88
2023-04-05T07:54:50.570Z,65.37
2023-04-05T07:55:50.586Z,68.61
2023-04-05T07:56:50.595Z,68.92
2023-04-05T07:57:50.576Z,67.22
2023-04-05T07:58:50.590Z,65.72
2023-04-05T07:59:50.543Z,66.07
2023-04-05T08:00:50.527Z,63.56
2023-04-05T08:01:50.527Z,65.20
2023-04-05T08:02:50.588Z,67.28
2023-04-05T08:03:51.566Z,59.69
2023-04-05T08:04:51.330Z,69.98
2023-04-05T08:05:50.476Z,65.52
2023-04-05T08:06:51.804Z,67.50
2023-04-05T08:07:50.536Z,62.38
2023-04-05T08:08:50.583Z,65.85
2023-04-05T08:09:50.641Z,63.00
2023-04-05T08:10:50.534Z,64.60
2023-04-05T08:11:50.464Z,63.51
2023-04-05T08:12:50.892Z,68.55
2023-04-05T08:13:50.479Z,66.63
2023-04-05T08:14:50.437Z,69.12
2023-04-05T08:15:51.431Z,66.14
2023-04-05T08:16:50.430Z,62.48
2023-04-05T08:17:50.481Z,67.02
2023-04-05T08:18:50.421Z,65.69
2023-04-05T08:19:50.380Z,60.19
2023-04-05T08:20:50.374Z,59.57
2023-04-05T08:21:50.394Z,63.16
2023-04-05T08:22:50.396Z,69.08
2023-04-05T08:23:51.312Z,67.29
2023-04-05T08:24:50.511Z,66.58
2023-04-05T08:25:51.148Z,64.49
2023-04-05T08:26:50.392Z,60.31
2023-04-05T08:27:51.226Z,67.01
2023-04-05T08:28:50.332Z,61.69
2023-04-05T08:29:50.840Z,62.07
2023-04-05T08:30:50.359Z,64.68
2023-04-05T08:31:51.419Z,68.17
2023-04-05T08:32:51.022Z,64.37
2023-04-05T08:33:50.381Z,64.43
2023-04-05T08:34:51.343Z,66.21
2023-04-05T08:35:50.360Z,69.44
2023-04-05T08:36:50.256Z,69.93
2023-04-05T08:37:51.221Z,65.15
2023-04-05T08:38:50.795Z,68.09
2023-04-05T08:39:50.362Z,66.99
2023-04-05T08:40:50.826Z,69.49
2023-04-05T08:41:50.723Z,67.62
2023-04-05T08:42:50.213Z,55.62
2023-04-05T08:43:50.844Z,61.16
2023-04-05T08:44:50.221Z,66.54
2023-04-05T08:45:50.438Z,68.30
2023-04-05T08:46:50.172Z,69.84
2023-04-05T08:47:51.184Z,62.81
2023-04-05T08:48:50.238Z,69.92
2023-04-05T08:49:50.154Z,67.83
2023-04-05T08:50:50.739Z,66.47
2023-04-05T08:51:50.857Z,67.86
2023-04-05T08:52:50.157Z,68.19
2023-04-05T08:53:50.838Z,64.52
2023-04-05T08:54:50.909Z,63.38
2023-04-05T08:55:51.415Z,63.49
2023-04-05T08:56:50.809Z,69.45
2023-04-05T08:57:50.839Z,64.29
2023-04-05T08:58:50.105Z,63.66
2023-04-05T08:59:50.111Z,68.94
2023-04-05T09:00:52.910Z,69.44
2023-04-05T09:01:50.161Z,65.45
2023-04-05T09:02:50.147Z,61.27
2023-04-05T09:03:50.116Z,61.21
2023-04-05T09:04:50.062Z,65.73
2023-04-05T09:05:50.691Z,69.01
2023-04-05T09:06:50.063Z,67.71
2023-04-05T09:07:50.017Z,62.45
2023-04-05T09:08:50.821Z,57.49
2023-04-05T09:09:50.019Z,73.24
2023-04-05T09:10:50.010Z,67.96
2023-04-05T09:11:50.037Z,63.72
2023-04-05T09:12:52.618Z,68.14
2023-04-05T09:13:50.025Z,59.58
2023-04-05T09:14:49.991Z,65.79
2023-04-05T09:15:49.961Z,68.86
2023-04-05T09:16:50.020Z,65.10
2023-04-05T09:17:49.954Z,66.07
2023-04-05T09:18:49.952Z,62.30
2023-04-05T09:19:49.952Z,68.91
2023-04-05T09:20:49.971Z,68.01
2023-04-05T09:21:49.982Z,62.15
2023-04-05T09:22:50.706Z,68.72
2023-04-05T09:23:49.886Z,63.05
2023-04-05T09:25:22.800Z,69.41
2023-04-05T09:25:53.350Z,70.25
2023-04-05T09:26:51.880Z,65.08
2023-04-05T09:27:49.900Z,65.52
2023-04-05T09:28:49.887Z,69.25
2023-04-05T09:29:49.859Z,67.03
2023-04-05T09:30:49.882Z,68.67
2023-04-05T09:31:49.901Z,64.52
2023-04-05T09:32:50.078Z,62.13
2023-04-05T09:33:49.814Z,69.62
2023-04-05T09:34:53.293Z,67.08
2023-04-05T09:35:50.516Z,65.25
2023-04-05T09:36:59.262Z,63.70
2023-04-05T09:37:49.861Z,67.22
2023-04-05T09:38:50.739Z,66.12
2023-04-05T09:39:49.844Z,67.69
2023-04-05T09:40:50.502Z,62.99
2023-04-05T09:41:49.786Z,63.10
2023-04-05T09:42:49.807Z,66.87
2023-04-05T09:43:49.775Z,64.55
2023-04-05T09:44:49.768Z,71.45
2023-04-05T09:45:49.817Z,64.92
2023-04-05T09:46:49.767Z,58.92
2023-04-05T09:47:50.162Z,67.71
2023-04-05T09:48:50.754Z,65.16
2023-04-05T09:49:49.737Z,67.82
2023-04-05T09:50:49.848Z,64.85
2023-04-05T09:51:49.730Z,66.72
2023-04-05T09:52:49.796Z,66.57
2023-04-05T09:53:49.720Z,65.19
2023-04-05T09:54:49.751Z,61.10
2023-04-05T09:55:50.564Z,65.75
2023-04-05T09:56:49.714Z,67.37
2023-04-05T09:57:49.726Z,65.49
2023-04-05T09:58:49.998Z,70.61
2023-04-05T09:59:49.721Z,65.68
2023-04-05T10:00:51.486Z,67.62
2023-04-05T10:01:50.446Z,65.36
2023-04-05T10:02:49.774Z,58.34
2023-04-05T10:03:49.761Z,66.73
2023-04-05T10:04:49.630Z,65.06
2023-04-05T10:05:49.589Z,65.12
2023-04-05T10:06:49.654Z,68.86
2023-04-05T10:07:49.595Z,57.43
2023-04-05T10:08:50.705Z,58.40
2023-04-05T10:09:52.673Z,67.94
2023-04-05T10:10:49.585Z,56.14
2023-04-05T10:11:52.341Z,70.86
2023-04-05T10:12:51.896Z,66.91
2023-04-05T10:13:49.785Z,69.61
2023-04-05T10:14:49.634Z,63.06
2023-04-05T10:15:49.517Z,68.55
2023-04-05T10:16:49.668Z,65.99
2023-04-05T10:17:49.746Z,64.07
2023-04-05T10:18:49.509Z,61.60
2023-04-05T10:19:49.503Z,64.36
2023-04-05T10:20:49.539Z,64.65
2023-04-05T10:21:49.527Z,70.50
2023-04-05T10:22:49.486Z,65.03
2023-04-05T10:23:50.334Z,66.17
2023-04-05T10:24:49.439Z,68.37
2023-04-05T10:25:51.742Z,60.77
2023-04-05T10:26:49.442Z,64.18
2023-04-05T10:27:49.474Z,65.00
2023-04-05T10:28:49.482Z,68.47
2023-04-05T10:29:49.684Z,69.79
2023-04-05T10:30:49.466Z,64.82
2023-04-05T10:31:49.503Z,62.17
2023-04-05T10:32:49.579Z,67.03
2023-04-05T10:33:49.993Z,67.16
2023-04-05T10:34:49.389Z,64.53
2023-04-05T10:35:49.375Z,64.10
2023-04-05T10:36:49.519Z,65.84
2023-04-05T10:37:49.958Z,70.45
2023-04-05T10:38:49.420Z,67.87
2023-04-05T10:39:49.455Z,66.73
2023-04-05T10:40:49.356Z,65.18
2023-04-05T10:41:50.284Z,69.24
2023-04-05T10:42:49.365Z,62.63
2023-04-05T10:43:49.357Z,69.10
2023-04-05T10:44:49.369Z,62.49
2023-04-05T10:45:49.326Z,71.00
2023-04-05T10:46:49.458Z,63.66
2023-04-05T10:47:49.367Z,67.75
2023-04-05T10:48:49.318Z,69.23
2023-04-05T10:49:49.406Z,65.25
2023-04-05T10:50:49.299Z,70.26
2023-04-05T10:51:49.864Z,68.70
2023-04-05T10:52:49.266Z,64.37
2023-04-05T10:53:50.413Z,66.48
2023-04-05T10:54:50.273Z,63.63
2023-04-05T10:55:49.213Z,63.84
2023-04-05T10:56:49.215Z,68.27
2023-04-05T10:57:49.221Z,67.96
2023-04-05T10:58:49.248Z,64.98
2023-04-05T10:59:49.355Z,66.97
2023-04-05T11:00:49.582Z,66.95
2023-04-05T11:01:49.228Z,68.03
2023-04-05T11:02:49.212Z,65.37
2023-04-05T11:03:49.287Z,67.09
2023-04-05T11:04:50.063Z,62.27
2023-04-05T11:05:49.208Z,69.34
2023-04-05T11:06:49.140Z,64.24
2023-04-05T11:07:49.112Z,67.95
2023-04-05T11:08:49.407Z,67.29
2023-04-05T11:09:49.170Z,67.66
2023-04-05T11:10:50.014Z,64.87
2023-04-05T11:11:49.136Z,71.87
2023-04-05T11:12:49.117Z,68.62
2023-04-05T11:14:21.022Z,66.92
2023-04-05T11:14:49.955Z,66.42
2023-04-05T11:15:49.116Z,61.36
2023-04-05T11:16:49.093Z,64.37
2023-04-05T11:17:49.064Z,68.00
2023-04-05T11:18:49.036Z,66.05
2023-04-05T11:19:50.288Z,64.53
2023-04-05T11:20:49.003Z,65.61
2023-04-05T11:21:49.495Z,63.32
2023-04-05T11:22:49.019Z,70.19
2023-04-05T11:23:48.990Z,66.70
2023-04-05T11:24:48.991Z,61.20
2023-04-05T11:25:51.550Z,67.90
2023-04-05T11:26:49.116Z,64.21
2023-04-05T11:27:49.994Z,68.91
2023-04-05T11:28:49.990Z,57.39
2023-04-05T11:29:48.931Z,67.94
2023-04-05T11:30:50.400Z,69.16
2023-04-05T11:31:49.968Z,67.89
2023-04-05T11:32:49.995Z,63.20
2023-04-05T11:33:55.739Z,63.30
2023-04-05T11:34:50.897Z,65.30
2023-04-05T11:35:48.912Z,65.32
2023-04-05T11:36:49.028Z,65.14
2023-04-05T11:37:48.906Z,66.94
2023-04-05T11:38:48.863Z,65.21
2023-04-05T11:39:48.867Z,68.37
2023-04-05T11:40:48.853Z,67.07
2023-04-05T11:41:48.878Z,63.26
2023-04-05T11:42:49.527Z,65.71
2023-04-05T11:43:48.832Z,67.96
2023-04-05T11:44:48.857Z,62.48
2023-04-05T11:45:48.901Z,66.39
2023-04-05T11:46:49.011Z,66.56
2023-04-05T11:47:48.918Z,65.77
2023-04-05T11:48:48.818Z,62.44
2023-04-05T11:49:49.481Z,68.53
2023-04-05T11:50:48.846Z,67.24
2023-04-05T11:51:48.767Z,66.83
2023-04-05T11:52:50.537Z,64.57
2023-04-05T11:53:48.793Z,66.87
2023-04-05T11:54:49.481Z,70.56
2023-04-05T11:55:48.730Z,69.29
2023-04-05T11:56:48.734Z,66.39
2023-04-05T11:57:48.712Z,60.21
2023-04-05T11:58:48.850Z,67.91
2023-04-05T11:59:49.503Z,63.67
2023-04-05T12:00:49.452Z,62.28
2023-04-05T12:01:48.666Z,66.08
2023-04-05T12:02:48.751Z,67.73
2023-04-05T12:03:48.757Z,68.35
2023-04-05T12:04:48.782Z,69.78
2023-04-05T12:05:48.641Z,67.76
2023-04-05T12:06:48.641Z,67.85
2023-04-05T12:07:48.637Z,66.24
2023-04-05T12:08:49.146Z,68.29
2023-04-05T12:09:50.413Z,67.05
2023-04-05T12:10:48.680Z,65.97
2023-04-05T12:11:48.719Z,69.99
2023-04-05T12:12:48.573Z,67.71
2023-04-05T12:13:48.595Z,69.65
2023-04-05T12:14:48.568Z,67.82
2023-04-05T12:15:48.579Z,67.66
2023-04-05T12:16:48.679Z,66.15
2023-04-05T12:17:48.577Z,67.15
2023-04-05T12:18:48.565Z,67.73
2023-04-05T12:19:48.524Z,67.32
2023-04-05T12:20:48.549Z,68.03
2023-04-05T12:21:48.528Z,66.83
2023-04-05T12:22:48.591Z,67.15
2023-04-05T12:23:48.549Z,68.16
2023-04-05T12:24:48.505Z,67.48
2023-04-05T12:25:49.517Z,69.60
2023-04-05T12:26:48.499Z,68.96
2023-04-05T12:27:49.476Z,67.08
2023-04-05T12:28:48.501Z,67.13
2023-04-05T12:29:48.610Z,69.63
2023-04-05T12:30:48.454Z,62.12
2023-04-05T12:31:48.505Z,69.30
2023-04-05T12:32:49.410Z,67.76
2023-04-05T12:33:48.585Z,65.39
2023-04-05T12:34:49.449Z,65.81
2023-04-05T12:35:48.459Z,63.46
2023-04-05T12:36:48.426Z,68.45
2023-04-05T12:37:48.398Z,68.82
2023-04-05T12:38:50.198Z,65.88
2023-04-05T12:39:48.401Z,70.21
2023-04-05T12:40:48.373Z,63.52
2023-04-05T12:41:48.378Z,71.90
2023-04-05T12:42:48.365Z,69.46
2023-04-05T12:43:48.359Z,64.43
2023-04-05T12:44:48.347Z,67.30
2023-04-05T12:45:48.381Z,69.43
2023-04-05T12:46:48.440Z,67.80
2023-04-05T12:47:48.331Z,68.26
2023-04-05T12:48:48.332Z,65.09
2023-04-05T12:49:48.915Z,69.55
2023-04-05T12:50:48.520Z,66.54
2023-04-05T12:51:48.354Z,68.42
2023-04-05T12:52:48.297Z,68.21
2023-04-05T12:53:48.309Z,62.95
2023-04-05T12:54:48.272Z,65.46
2023-04-05T12:55:49.113Z,68.80
2023-04-05T12:56:48.278Z,69.85
2023-04-05T12:57:48.239Z,66.48
2023-04-05T12:58:49.038Z,70.80
2023-04-05T12:59:48.235Z,70.19
2023-04-05T13:00:48.911Z,69.52
2023-04-05T13:01:48.301Z,67.41
2023-04-05T13:02:48.299Z,69.79
2023-04-05T13:03:49.703Z,65.45
2023-04-05T13:04:49.217Z,66.45
2023-04-05T13:05:48.326Z,72.23
2023-04-05T13:06:48.196Z,70.32
2023-04-05T13:07:49.014Z,67.68
2023-04-05T13:08:48.156Z,68.10